Jennifer — WDF6480 — position and weather

sailwx.info

Track history (hours):
 
Tides and Currents Weather Stations Pressure Air Temp Water Temp Dewpoint Dewpoint Depression Visibility Wind Speed Wind Dir Waves Ship Positions

Jennifer

Owner: John W. Stone Oil Distributor, L.L.C., Gretna, LA. More information available from US FCC via Universal Licensing System and Coast Guard Vessel Documentation Center.

Last reported at 2016-Apr-29 15:33 UTC. Time now 2016-Apr-29 19:44 UTC.
Position N 29°55' W 089°58'.

Length 17 m; draft 3 m.

Type: Tug. MMSI: 367474690.

Date/timePositionNaut miles runAvg speedWind from/ knotsBaromVisibWave heightAir tempDewpointWater temp
2016-Apr-29 15:33N 29°55' W 089°58'5 5.1
2016-Apr-29 14:33N 29°56' W 090°04'0 0.0
2016-Apr-29 13:33N 29°56' W 090°04'0 0.1
2016-Apr-29 12:33N 29°56' W 090°04'3 3.0
2016-Apr-29 11:33N 29°56' W 090°00'6 1.0
2016-Apr-29 05:18N 29°53' W 089°54'5 7.0
2016-Apr-29 04:33N 29°56' W 089°59'4 3.9
2016-Apr-29 03:33N 29°56' W 090°04'0 0.0
2016-Apr-29 02:33N 29°56' W 090°04'0 0.0
2016-Apr-29 01:33N 29°56' W 090°04'0 0.1
2016-Apr-29 00:33N 29°56' W 090°04'0 0.2
2016-Apr-28 23:33N 29°55' W 090°04'0 0.0
2016-Apr-28 22:33N 29°55' W 090°04'0 0.1
2016-Apr-28 21:33N 29°56' W 090°04'0 0.1
2016-Apr-28 20:33N 29°55' W 090°04'0 0.0
2016-Apr-28 19:33N 29°55' W 090°04'0 0.0
2016-Apr-28 18:33N 29°55' W 090°04'3 2.5
2016-Apr-28 17:32N 29°57' W 090°01'5 5.5
2016-Apr-28 16:33N 29°55' W 089°55'3 3.4
2016-Apr-28 15:32N 29°53' W 089°58'5 0.4
2016-Apr-28 02:29N 29°48' W 090°00'7 7.2
2016-Apr-28 01:31N 29°52' W 089°54'7 7.1
2016-Apr-28 00:33N 29°57' W 090°00'3 3.0
2016-Apr-27 23:30N 29°55' W 090°04'3 2.9
2016-Apr-27 22:26N 29°56' W 090°00'2 2.1
2016-Apr-27 21:19N 29°55' W 089°58'1 1.4
2016-Apr-27 20:33N 29°54' W 089°59'1 0.6
2016-Apr-27 19:11N 29°53' W 089°60'0 0.0
2016-Apr-27 18:31N 29°53' W 089°60'0 0.0
2016-Apr-27 17:33N 29°53' W 089°60'0 0.0
2016-Apr-27 16:32N 29°53' W 089°60'2 1.7
2016-Apr-27 15:33N 29°52' W 090°01'2 2.4
2016-Apr-27 14:33N 29°50' W 090°03'0 0.1
2016-Apr-27 13:33N 29°50' W 090°03'0 0.0
2016-Apr-27 12:33N 29°50' W 090°03'28 5.5
2016-Apr-27 07:26N 29°34' W 090°29'6 6.5
2016-Apr-27 06:33N 29°35' W 090°36'6 5.8
2016-Apr-27 05:33N 29°37' W 090°42'6 5.7
2016-Apr-27 04:33N 29°31' W 090°42'  
2016-Apr-24 16:33N 29°25' W 090°43'7 6.9
2016-Apr-24 15:33N 29°32' W 090°42'5 4.8
2016-Apr-24 14:34N 29°37' W 090°42'6 5.8
2016-Apr-24 13:33N 29°35' W 090°36'29 4.0
2016-Apr-24 06:13N 29°46' W 090°04'2 3.4
2016-Apr-24 05:33N 29°49' W 090°04'5 4.9
2016-Apr-24 04:33N 29°52' W 090°01'3 3.3
2016-Apr-24 03:33N 29°55' W 089°58'1 0.7
2016-Apr-24 02:33N 29°55' W 089°58'0 0.0
2016-Apr-24 01:31N 29°55' W 089°58'0 0.0
2016-Apr-24 00:32N 29°55' W 089°58'0 0.0
2016-Apr-23 23:32N 29°55' W 089°58'0 0.0
2016-Apr-23 22:33N 29°55' W 089°58'2 1.9
2016-Apr-23 21:33N 29°56' W 089°59'4 3.8
2016-Apr-23 20:33N 29°55' W 090°04'0 0.0
2016-Apr-23 19:34N 29°55' W 090°04'0 0.0
2016-Apr-23 18:33N 29°55' W 090°04'0 0.0
2016-Apr-23 17:34N 29°55' W 090°04'0 0.1
2016-Apr-23 16:33N 29°55' W 090°04'0 0.0
2016-Apr-23 15:33N 29°55' W 090°04'0 0.0
2016-Apr-23 14:33N 29°55' W 090°04'0 0.3
2016-Apr-23 13:34N 29°56' W 090°04'4 3.8
2016-Apr-23 12:33N 29°56' W 089°59'1 1.2
2016-Apr-23 11:33N 29°55' W 089°59'1 1.5
2016-Apr-23 10:33N 29°53' W 089°60'0 0.0
2016-Apr-23 09:33N 29°53' W 089°60'0 0.0
2016-Apr-23 08:32N 29°53' W 089°60'0 0.0
2016-Apr-23 07:34N 29°53' W 089°60'0 0.0
2016-Apr-23 06:33N 29°53' W 089°60'0 0.0
2016-Apr-23 05:34N 29°53' W 089°60'0 0.0
2016-Apr-23 04:33N 29°53' W 089°60'2 2.2
2016-Apr-23 03:33N 29°51' W 090°01'29 5.3
2016-Apr-22 22:04N 29°33' W 090°27'3 6.4
2016-Apr-22 21:33N 29°34' W 090°31'6 6.0
2016-Apr-22 20:33N 29°35' W 090°38'4 4.4
2016-Apr-22 19:33N 29°36' W 090°43'5 4.7
2016-Apr-22 18:33N 29°32' W 090°46'117 3.2
2016-Apr-21 05:29N 29°56' W 092°58'5 5.7
2016-Apr-21 04:34N 29°56' W 093°04'6 5.6
2016-Apr-21 03:34N 29°57' W 093°11'6 6.0
2016-Apr-21 02:34N 30°02' W 093°15'4 4.3
2016-Apr-21 01:34N 30°05' W 093°18'1 0.6
2016-Apr-21 00:33N 30°06' W 093°18'0 0.1
2016-Apr-20 23:33N 30°06' W 093°18'6 5.6
2016-Apr-20 22:33N 30°01' W 093°20'6 6.2
2016-Apr-20 21:34N 29°54' W 093°21'8 7.3
2016-Apr-20 20:29N 29°47' W 093°21'0 0.0
2016-Apr-20 14:26N 29°46' W 093°21'0 0.1
2016-Apr-20 13:15N 29°46' W 093°21'0 0.0
2016-Apr-20 08:22N 29°46' W 093°21'0 0.0
2016-Apr-20 07:23N 29°46' W 093°21'0 0.0
2016-Apr-20 05:30N 29°46' W 093°21'0 0.0
2016-Apr-20 04:33N 29°46' W 093°21'0 0.0
2016-Apr-20 03:32N 29°46' W 093°21'0 0.0
2016-Apr-20 02:29N 29°46' W 093°21'0 0.0
2016-Apr-20 01:25N 29°46' W 093°21'0 0.0
2016-Apr-19 22:23N 29°46' W 093°21'0 0.0
2016-Apr-19 21:31N 29°46' W 093°21'0 0.1
2016-Apr-19 20:33N 29°46' W 093°21'0 0.0
2016-Apr-19 16:31N 29°46' W 093°21'5 5.0
2016-Apr-19 15:33N 29°51' W 093°21'  
Track history (hours):
 
Tides and Currents Weather Stations Pressure Air Temp Water Temp Dewpoint Dewpoint Depression Visibility Wind Speed Wind Dir Waves Ship Positions

Jennifer

Owner: John W. Stone Oil Distributor, L.L.C., Gretna, LA. More information available from US FCC via Universal Licensing System and Coast Guard Vessel Documentation Center.

Last reported at 2016-Apr-29 15:33 UTC. Time now 2016-Apr-29 19:44 UTC.
Position N 29°55' W 089°58'.

Length 17 m; draft 3 m.

Type: Tug. MMSI: 367474690.

Date/timePositionNaut miles runAvg speedWind from/ knotsBaromVisibWave heightAir tempDewpointWater temp
2016-Apr-29 15:33N 29°55' W 089°58'5 5.1
2016-Apr-29 14:33N 29°56' W 090°04'0 0.0
2016-Apr-29 13:33N 29°56' W 090°04'0 0.1
2016-Apr-29 12:33N 29°56' W 090°04'3 3.0
2016-Apr-29 11:33N 29°56' W 090°00'6 1.0
2016-Apr-29 05:18N 29°53' W 089°54'5 7.0
2016-Apr-29 04:33N 29°56' W 089°59'4 3.9
2016-Apr-29 03:33N 29°56' W 090°04'0 0.0
2016-Apr-29 02:33N 29°56' W 090°04'0 0.0
2016-Apr-29 01:33N 29°56' W 090°04'0 0.1
2016-Apr-29 00:33N 29°56' W 090°04'0 0.2
2016-Apr-28 23:33N 29°55' W 090°04'0 0.0
2016-Apr-28 22:33N 29°55' W 090°04'0 0.1
2016-Apr-28 21:33N 29°56' W 090°04'0 0.1
2016-Apr-28 20:33N 29°55' W 090°04'0 0.0
2016-Apr-28 19:33N 29°55' W 090°04'0 0.0
2016-Apr-28 18:33N 29°55' W 090°04'3 2.5
2016-Apr-28 17:32N 29°57' W 090°01'5 5.5
2016-Apr-28 16:33N 29°55' W 089°55'3 3.4
2016-Apr-28 15:32N 29°53' W 089°58'5 0.4
2016-Apr-28 02:29N 29°48' W 090°00'7 7.2
2016-Apr-28 01:31N 29°52' W 089°54'7 7.1
2016-Apr-28 00:33N 29°57' W 090°00'3 3.0
2016-Apr-27 23:30N 29°55' W 090°04'3 2.9
2016-Apr-27 22:26N 29°56' W 090°00'2 2.1
2016-Apr-27 21:19N 29°55' W 089°58'1 1.4
2016-Apr-27 20:33N 29°54' W 089°59'1 0.6
2016-Apr-27 19:11N 29°53' W 089°60'0 0.0
2016-Apr-27 18:31N 29°53' W 089°60'0 0.0
2016-Apr-27 17:33N 29°53' W 089°60'0 0.0
2016-Apr-27 16:32N 29°53' W 089°60'2 1.7
2016-Apr-27 15:33N 29°52' W 090°01'2 2.4
2016-Apr-27 14:33N 29°50' W 090°03'0 0.1
2016-Apr-27 13:33N 29°50' W 090°03'0 0.0
2016-Apr-27 12:33N 29°50' W 090°03'28 5.5
2016-Apr-27 07:26N 29°34' W 090°29'6 6.5
2016-Apr-27 06:33N 29°35' W 090°36'6 5.8
2016-Apr-27 05:33N 29°37' W 090°42'6 5.7
2016-Apr-27 04:33N 29°31' W 090°42'  
2016-Apr-24 16:33N 29°25' W 090°43'7 6.9
2016-Apr-24 15:33N 29°32' W 090°42'5 4.8
2016-Apr-24 14:34N 29°37' W 090°42'6 5.8
2016-Apr-24 13:33N 29°35' W 090°36'29 4.0
2016-Apr-24 06:13N 29°46' W 090°04'2 3.4
2016-Apr-24 05:33N 29°49' W 090°04'5 4.9
2016-Apr-24 04:33N 29°52' W 090°01'3 3.3
2016-Apr-24 03:33N 29°55' W 089°58'1 0.7
2016-Apr-24 02:33N 29°55' W 089°58'0 0.0
2016-Apr-24 01:31N 29°55' W 089°58'0 0.0
2016-Apr-24 00:32N 29°55' W 089°58'0 0.0
2016-Apr-23 23:32N 29°55' W 089°58'0 0.0
2016-Apr-23 22:33N 29°55' W 089°58'2 1.9
2016-Apr-23 21:33N 29°56' W 089°59'4 3.8
2016-Apr-23 20:33N 29°55' W 090°04'0 0.0
2016-Apr-23 19:34N 29°55' W 090°04'0 0.0
2016-Apr-23 18:33N 29°55' W 090°04'0 0.0
2016-Apr-23 17:34N 29°55' W 090°04'0 0.1
2016-Apr-23 16:33N 29°55' W 090°04'0 0.0
2016-Apr-23 15:33N 29°55' W 090°04'0 0.0
2016-Apr-23 14:33N 29°55' W 090°04'0 0.3
2016-Apr-23 13:34N 29°56' W 090°04'4 3.8
2016-Apr-23 12:33N 29°56' W 089°59'1 1.2
2016-Apr-23 11:33N 29°55' W 089°59'1 1.5
2016-Apr-23 10:33N 29°53' W 089°60'0 0.0
2016-Apr-23 09:33N 29°53' W 089°60'0 0.0
2016-Apr-23 08:32N 29°53' W 089°60'0 0.0
2016-Apr-23 07:34N 29°53' W 089°60'0 0.0
2016-Apr-23 06:33N 29°53' W 089°60'0 0.0
2016-Apr-23 05:34N 29°53' W 089°60'0 0.0
2016-Apr-23 04:33N 29°53' W 089°60'2 2.2
2016-Apr-23 03:33N 29°51' W 090°01'29 5.3
2016-Apr-22 22:04N 29°33' W 090°27'3 6.4
2016-Apr-22 21:33N 29°34' W 090°31'6 6.0
2016-Apr-22 20:33N 29°35' W 090°38'4 4.4
2016-Apr-22 19:33N 29°36' W 090°43'5 4.7
2016-Apr-22 18:33N 29°32' W 090°46'117 3.2
2016-Apr-21 05:29N 29°56' W 092°58'5 5.7
2016-Apr-21 04:34N 29°56' W 093°04'6 5.6
2016-Apr-21 03:34N 29°57' W 093°11'6 6.0
2016-Apr-21 02:34N 30°02' W 093°15'4 4.3
2016-Apr-21 01:34N 30°05' W 093°18'1 0.6
2016-Apr-21 00:33N 30°06' W 093°18'0 0.1
2016-Apr-20 23:33N 30°06' W 093°18'6 5.6
2016-Apr-20 22:33N 30°01' W 093°20'6 6.2
2016-Apr-20 21:34N 29°54' W 093°21'8 7.3
2016-Apr-20 20:29N 29°47' W 093°21'0 0.0
2016-Apr-20 14:26N 29°46' W 093°21'0 0.1
2016-Apr-20 13:15N 29°46' W 093°21'0 0.0
2016-Apr-20 08:22N 29°46' W 093°21'0 0.0
2016-Apr-20 07:23N 29°46' W 093°21'0 0.0
2016-Apr-20 05:30N 29°46' W 093°21'0 0.0
2016-Apr-20 04:33N 29°46' W 093°21'0 0.0
2016-Apr-20 03:32N 29°46' W 093°21'0 0.0
2016-Apr-20 02:29N 29°46' W 093°21'0 0.0
2016-Apr-20 01:25N 29°46' W 093°21'0 0.0
2016-Apr-19 22:23N 29°46' W 093°21'0 0.0
2016-Apr-19 21:31N 29°46' W 093°21'0 0.1
2016-Apr-19 20:33N 29°46' W 093°21'0 0.0
2016-Apr-19 16:31N 29°46' W 093°21'5 5.0
2016-Apr-19 15:33N 29°51' W 093°21'  

Dump ship's entire track history